sensor_id;sensor_type;location;lat;lon;timestamp;P1;durP1;ratioP1;P2;durP2;ratioP2
30185;SDS011;31152;49.190;8.122;2022-09-28T00:01:08;6.50;;;1.90;;
30185;SDS011;31152;49.190;8.122;2022-09-28T00:03:55;5.93;;;2.33;;
30185;SDS011;31152;49.190;8.122;2022-09-28T00:06:25;4.68;;;2.22;;
30185;SDS011;31152;49.190;8.122;2022-09-28T00:08:55;7.43;;;2.08;;
30185;SDS011;31152;49.190;8.122;2022-09-28T00:11:22;4.35;;;2.05;;
30185;SDS011;31152;49.190;8.122;2022-09-28T00:13:56;7.40;;;2.20;;
30185;SDS011;31152;49.190;8.122;2022-09-28T00:16:29;5.53;;;2.30;;
30185;SDS011;31152;49.190;8.122;2022-09-28T00:18:58;4.68;;;1.83;;
30185;SDS011;31152;49.190;8.122;2022-09-28T00:21:26;5.50;;;2.10;;
30185;SDS011;31152;49.190;8.122;2022-09-28T00:23:58;5.80;;;2.15;;
30185;SDS011;31152;49.190;8.122;2022-09-28T00:26:49;4.80;;;1.60;;
30185;SDS011;31152;49.190;8.122;2022-09-28T00:29:23;5.50;;;2.00;;
30185;SDS011;31152;49.190;8.122;2022-09-28T00:31:58;5.45;;;1.85;;
30185;SDS011;31152;49.190;8.122;2022-09-28T00:34:37;3.13;;;1.90;;
30185;SDS011;31152;49.190;8.122;2022-09-28T00:37:07;3.78;;;1.50;;
30185;SDS011;31152;49.190;8.122;2022-09-28T00:39:34;5.93;;;1.73;;
30185;SDS011;31152;49.190;8.122;2022-09-28T00:42:08;4.15;;;1.48;;
30185;SDS011;31152;49.190;8.122;2022-09-28T00:47:26;4.15;;;1.80;;
30185;SDS011;31152;49.190;8.122;2022-09-28T00:50:15;4.35;;;1.48;;
30185;SDS011;31152;49.190;8.122;2022-09-28T00:55:39;3.72;;;1.60;;
30185;SDS011;31152;49.190;8.122;2022-09-28T00:58:14;3.10;;;1.58;;
30185;SDS011;31152;49.190;8.122;2022-09-28T01:00:49;6.95;;;1.40;;
30185;SDS011;31152;49.190;8.122;2022-09-28T01:03:18;1.95;;;1.30;;
30185;SDS011;31152;49.190;8.122;2022-09-28T01:05:44;3.85;;;1.13;;
30185;SDS011;31152;49.190;8.122;2022-09-28T01:08:13;2.72;;;1.48;;
30185;SDS011;31152;49.190;8.122;2022-09-28T01:10:41;3.58;;;1.10;;
30185;SDS011;31152;49.190;8.122;2022-09-28T01:13:10;4.03;;;1.25;;
30185;SDS011;31152;49.190;8.122;2022-09-28T01:27:11;3.45;;;0.80;;
30185;SDS011;31152;49.190;8.122;2022-09-28T01:32:31;4.07;;;0.70;;
30185;SDS011;31152;49.190;8.122;2022-09-28T01:35:04;1.98;;;0.80;;
30185;SDS011;31152;49.190;8.122;2022-09-28T01:37:45;2.33;;;0.73;;
30185;SDS011;31152;49.190;8.122;2022-09-28T01:40:17;3.15;;;0.80;;
30185;SDS011;31152;49.190;8.122;2022-09-28T01:42:53;2.50;;;0.70;;
30185;SDS011;31152;49.190;8.122;2022-09-28T01:45:31;2.70;;;1.08;;
30185;SDS011;31152;49.190;8.122;2022-09-28T01:48:11;2.70;;;0.65;;
30185;SDS011;31152;49.190;8.122;2022-09-28T01:50:42;5.60;;;0.80;;
30185;SDS011;31152;49.190;8.122;2022-09-28T01:53:16;1.52;;;0.57;;
30185;SDS011;31152;49.190;8.122;2022-09-28T01:55:49;1.13;;;0.60;;
30185;SDS011;31152;49.190;8.122;2022-09-28T01:58:36;2.60;;;0.60;;
30185;SDS011;31152;49.190;8.122;2022-09-28T02:01:12;2.22;;;0.60;;
30185;SDS011;31152;49.190;8.122;2022-09-28T02:04:04;1.33;;;0.60;;
30185;SDS011;31152;49.190;8.122;2022-09-28T02:06:41;0.65;;;0.40;;
30185;SDS011;31152;49.190;8.122;2022-09-28T02:09:15;3.03;;;0.40;;
30185;SDS011;31152;49.190;8.122;2022-09-28T02:11:51;1.08;;;0.40;;
30185;SDS011;31152;49.190;8.122;2022-09-28T02:14:24;0.90;;;0.30;;
30185;SDS011;31152;49.190;8.122;2022-09-28T02:16:53;1.30;;;0.30;;
30185;SDS011;31152;49.190;8.122;2022-09-28T02:19:22;1.45;;;0.40;;
30185;SDS011;31152;49.190;8.122;2022-09-28T02:24:34;2.33;;;0.43;;
30185;SDS011;31152;49.190;8.122;2022-09-28T02:27:19;0.28;;;0.20;;
30185;SDS011;31152;49.190;8.122;2022-09-28T02:30:03;0.75;;;0.30;;
30185;SDS011;31152;49.190;8.122;2022-09-28T02:32:31;4.90;;;0.70;;
30185;SDS011;31152;49.190;8.122;2022-09-28T02:35:06;0.65;;;0.30;;
30185;SDS011;31152;49.190;8.122;2022-09-28T02:37:38;0.68;;;0.47;;
30185;SDS011;31152;49.190;8.122;2022-09-28T02:40:15;1.73;;;0.40;;
30185;SDS011;31152;49.190;8.122;2022-09-28T02:42:48;0.90;;;0.30;;
30185;SDS011;31152;49.190;8.122;2022-09-28T02:45:56;1.33;;;0.40;;
30185;SDS011;31152;49.190;8.122;2022-09-28T03:03:03;4.15;;;0.60;;
30185;SDS011;31152;49.190;8.122;2022-09-28T03:05:56;1.52;;;0.40;;
30185;SDS011;31152;49.190;8.122;2022-09-28T03:11:43;6.43;;;0.82;;
30185;SDS011;31152;49.190;8.122;2022-09-28T03:14:13;4.65;;;1.00;;
30185;SDS011;31152;49.190;8.122;2022-09-28T03:16:43;4.45;;;0.80;;
30185;SDS011;31152;49.190;8.122;2022-09-28T03:19:11;3.90;;;0.70;;
30185;SDS011;31152;49.190;8.122;2022-09-28T03:21:41;4.15;;;0.80;;
30185;SDS011;31152;49.190;8.122;2022-09-28T03:24:08;4.10;;;0.65;;
30185;SDS011;31152;49.190;8.122;2022-09-28T03:26:36;1.85;;;0.70;;
30185;SDS011;31152;49.190;8.122;2022-09-28T03:29:03;4.38;;;0.90;;
30185;SDS011;31152;49.190;8.122;2022-09-28T03:31:33;2.60;;;0.50;;
30185;SDS011;31152;49.190;8.122;2022-09-28T03:34:02;2.72;;;0.73;;
30185;SDS011;31152;49.190;8.122;2022-09-28T03:36:31;3.80;;;0.93;;
30185;SDS011;31152;49.190;8.122;2022-09-28T03:38:57;4.25;;;1.15;;
30185;SDS011;31152;49.190;8.122;2022-09-28T03:41:24;3.70;;;0.98;;
30185;SDS011;31152;49.190;8.122;2022-09-28T03:43:54;4.63;;;1.10;;
30185;SDS011;31152;49.190;8.122;2022-09-28T03:46:24;3.63;;;1.30;;
30185;SDS011;31152;49.190;8.122;2022-09-28T03:48:50;2.60;;;1.13;;
30185;SDS011;31152;49.190;8.122;2022-09-28T03:51:17;4.70;;;1.83;;
30185;SDS011;31152;49.190;8.122;2022-09-28T03:53:44;5.05;;;1.85;;
30185;SDS011;31152;49.190;8.122;2022-09-28T03:56:11;8.10;;;2.30;;
30185;SDS011;31152;49.190;8.122;2022-09-28T03:58:39;7.53;;;2.00;;
30185;SDS011;31152;49.190;8.122;2022-09-28T04:01:07;7.80;;;2.75;;
30185;SDS011;31152;49.190;8.122;2022-09-28T04:03:42;7.93;;;2.40;;
30185;SDS011;31152;49.190;8.122;2022-09-28T04:06:09;8.18;;;2.40;;
30185;SDS011;31152;49.190;8.122;2022-09-28T04:08:36;5.43;;;2.30;;
30185;SDS011;31152;49.190;8.122;2022-09-28T04:11:03;6.60;;;2.10;;
30185;SDS011;31152;49.190;8.122;2022-09-28T04:13:32;5.78;;;2.47;;
30185;SDS011;31152;49.190;8.122;2022-09-28T04:16:02;7.03;;;2.38;;
30185;SDS011;31152;49.190;8.122;2022-09-28T04:18:30;7.00;;;2.58;;
30185;SDS011;31152;49.190;8.122;2022-09-28T04:21:00;2.97;;;2.00;;
30185;SDS011;31152;49.190;8.122;2022-09-28T04:23:28;6.22;;;2.45;;
30185;SDS011;31152;49.190;8.122;2022-09-28T04:25:55;3.28;;;1.80;;
30185;SDS011;31152;49.190;8.122;2022-09-28T04:28:22;5.43;;;2.30;;
30185;SDS011;31152;49.190;8.122;2022-09-28T04:31:09;5.40;;;2.00;;
30185;SDS011;31152;49.190;8.122;2022-09-28T04:33:39;8.48;;;1.98;;
30185;SDS011;31152;49.190;8.122;2022-09-28T04:36:06;4.82;;;2.10;;
30185;SDS011;31152;49.190;8.122;2022-09-28T04:38:34;4.03;;;1.58;;
30185;SDS011;31152;49.190;8.122;2022-09-28T04:41:18;3.55;;;1.77;;
30185;SDS011;31152;49.190;8.122;2022-09-28T04:43:47;4.85;;;1.73;;
30185;SDS011;31152;49.190;8.122;2022-09-28T04:46:13;6.30;;;1.77;;
30185;SDS011;31152;49.190;8.122;2022-09-28T04:48:40;4.05;;;1.95;;
30185;SDS011;31152;49.190;8.122;2022-09-28T04:51:11;7.80;;;1.88;;
30185;SDS011;31152;49.190;8.122;2022-09-28T04:53:41;7.05;;;1.85;;
30185;SDS011;31152;49.190;8.122;2022-09-28T04:56:11;6.75;;;2.05;;
30185;SDS011;31152;49.190;8.122;2022-09-28T04:58:41;9.00;;;2.13;;
30185;SDS011;31152;49.190;8.122;2022-09-28T05:01:12;5.75;;;1.90;;
30185;SDS011;31152;49.190;8.122;2022-09-28T05:03:41;9.20;;;2.40;;
30185;SDS011;31152;49.190;8.122;2022-09-28T05:06:11;6.93;;;2.15;;
30185;SDS011;31152;49.190;8.122;2022-09-28T05:08:40;5.53;;;1.65;;
30185;SDS011;31152;49.190;8.122;2022-09-28T05:11:09;8.23;;;2.28;;
30185;SDS011;31152;49.190;8.122;2022-09-28T05:13:44;6.40;;;1.80;;
30185;SDS011;31152;49.190;8.122;2022-09-28T05:16:11;11.13;;;2.40;;
30185;SDS011;31152;49.190;8.122;2022-09-28T05:18:40;8.35;;;2.53;;
30185;SDS011;31152;49.190;8.122;2022-09-28T05:21:09;10.57;;;2.30;;
30185;SDS011;31152;49.190;8.122;2022-09-28T05:23:38;7.82;;;2.15;;
30185;SDS011;31152;49.190;8.122;2022-09-28T05:26:11;9.43;;;2.17;;
30185;SDS011;31152;49.190;8.122;2022-09-28T05:28:37;10.85;;;2.13;;
30185;SDS011;31152;49.190;8.122;2022-09-28T05:31:04;4.97;;;1.95;;
30185;SDS011;31152;49.190;8.122;2022-09-28T05:33:31;6.35;;;2.00;;
30185;SDS011;31152;49.190;8.122;2022-09-28T05:35:58;7.85;;;2.30;;
30185;SDS011;31152;49.190;8.122;2022-09-28T05:38:27;9.60;;;2.33;;
30185;SDS011;31152;49.190;8.122;2022-09-28T05:40:54;8.27;;;2.28;;
30185;SDS011;31152;49.190;8.122;2022-09-28T05:43:21;8.27;;;2.80;;
30185;SDS011;31152;49.190;8.122;2022-09-28T05:45:50;6.20;;;2.22;;
30185;SDS011;31152;49.190;8.122;2022-09-28T05:48:21;8.33;;;2.60;;
30185;SDS011;31152;49.190;8.122;2022-09-28T05:50:51;11.07;;;2.72;;
30185;SDS011;31152;49.190;8.122;2022-09-28T05:53:18;6.40;;;2.38;;
30185;SDS011;31152;49.190;8.122;2022-09-28T05:55:45;5.43;;;2.60;;
30185;SDS011;31152;49.190;8.122;2022-09-28T05:58:12;5.25;;;1.73;;
30185;SDS011;31152;49.190;8.122;2022-09-28T06:00:38;6.97;;;1.90;;
30185;SDS011;31152;49.190;8.122;2022-09-28T06:03:06;7.13;;;1.95;;
30185;SDS011;31152;49.190;8.122;2022-09-28T06:05:36;11.13;;;2.05;;
30185;SDS011;31152;49.190;8.122;2022-09-28T06:08:04;10.00;;;2.20;;
30185;SDS011;31152;49.190;8.122;2022-09-28T06:10:33;10.70;;;2.20;;
30185;SDS011;31152;49.190;8.122;2022-09-28T06:13:04;6.63;;;1.75;;
30185;SDS011;31152;49.190;8.122;2022-09-28T06:15:35;11.77;;;2.20;;
30185;SDS011;31152;49.190;8.122;2022-09-28T06:18:04;6.18;;;1.77;;
30185;SDS011;31152;49.190;8.122;2022-09-28T06:20:42;5.28;;;1.77;;
30185;SDS011;31152;49.190;8.122;2022-09-28T06:23:12;6.65;;;1.60;;
30185;SDS011;31152;49.190;8.122;2022-09-28T06:25:39;4.47;;;1.70;;
30185;SDS011;31152;49.190;8.122;2022-09-28T06:28:08;6.25;;;1.80;;
30185;SDS011;31152;49.190;8.122;2022-09-28T06:30:36;5.40;;;1.50;;
30185;SDS011;31152;49.190;8.122;2022-09-28T06:33:05;7.75;;;2.20;;
30185;SDS011;31152;49.190;8.122;2022-09-28T06:35:33;6.07;;;2.00;;
30185;SDS011;31152;49.190;8.122;2022-09-28T06:38:00;6.78;;;2.10;;
30185;SDS011;31152;49.190;8.122;2022-09-28T06:40:27;5.13;;;1.92;;
30185;SDS011;31152;49.190;8.122;2022-09-28T06:42:58;7.25;;;2.20;;
30185;SDS011;31152;49.190;8.122;2022-09-28T06:45:27;7.13;;;1.95;;
30185;SDS011;31152;49.190;8.122;2022-09-28T06:47:58;7.22;;;1.80;;
30185;SDS011;31152;49.190;8.122;2022-09-28T06:50:36;8.35;;;3.35;;
30185;SDS011;31152;49.190;8.122;2022-09-28T06:53:05;12.32;;;2.50;;
30185;SDS011;31152;49.190;8.122;2022-09-28T06:55:37;4.53;;;2.03;;
30185;SDS011;31152;49.190;8.122;2022-09-28T06:58:11;10.50;;;1.95;;
30185;SDS011;31152;49.190;8.122;2022-09-28T07:00:40;5.22;;;1.83;;
30185;SDS011;31152;49.190;8.122;2022-09-28T07:03:11;10.40;;;2.30;;
30185;SDS011;31152;49.190;8.122;2022-09-28T07:05:40;10.40;;;2.28;;
30185;SDS011;31152;49.190;8.122;2022-09-28T07:08:11;5.57;;;1.50;;
30185;SDS011;31152;49.190;8.122;2022-09-28T07:10:40;4.05;;;1.67;;
30185;SDS011;31152;49.190;8.122;2022-09-28T07:13:11;6.53;;;2.00;;
30185;SDS011;31152;49.190;8.122;2022-09-28T07:15:59;4.18;;;1.50;;
30185;SDS011;31152;49.190;8.122;2022-09-28T07:18:26;6.90;;;1.77;;
30185;SDS011;31152;49.190;8.122;2022-09-28T07:20:55;6.65;;;1.90;;
30185;SDS011;31152;49.190;8.122;2022-09-28T07:23:22;7.25;;;1.50;;
30185;SDS011;31152;49.190;8.122;2022-09-28T07:25:51;4.45;;;1.73;;
30185;SDS011;31152;49.190;8.122;2022-09-28T07:28:19;6.07;;;1.40;;
30185;SDS011;31152;49.190;8.122;2022-09-28T07:30:48;5.38;;;1.60;;
30185;SDS011;31152;49.190;8.122;2022-09-28T07:33:15;4.80;;;1.75;;
30185;SDS011;31152;49.190;8.122;2022-09-28T07:35:52;3.83;;;1.55;;
30185;SDS011;31152;49.190;8.122;2022-09-28T07:38:20;4.93;;;1.30;;
30185;SDS011;31152;49.190;8.122;2022-09-28T07:40:48;10.38;;;2.30;;
30185;SDS011;31152;49.190;8.122;2022-09-28T07:43:33;5.50;;;1.40;;
30185;SDS011;31152;49.190;8.122;2022-09-28T07:46:00;6.25;;;1.63;;
30185;SDS011;31152;49.190;8.122;2022-09-28T07:48:27;6.65;;;2.10;;
30185;SDS011;31152;49.190;8.122;2022-09-28T07:50:56;5.35;;;1.50;;
30185;SDS011;31152;49.190;8.122;2022-09-28T07:53:25;7.20;;;1.50;;
30185;SDS011;31152;49.190;8.122;2022-09-28T07:55:52;3.60;;;1.20;;
30185;SDS011;31152;49.190;8.122;2022-09-28T07:58:27;7.47;;;1.50;;
30185;SDS011;31152;49.190;8.122;2022-09-28T08:00:54;5.82;;;1.38;;
30185;SDS011;31152;49.190;8.122;2022-09-28T08:03:21;7.15;;;1.40;;
30185;SDS011;31152;49.190;8.122;2022-09-28T08:05:50;6.75;;;1.52;;
30185;SDS011;31152;49.190;8.122;2022-09-28T08:08:16;3.10;;;1.20;;
30185;SDS011;31152;49.190;8.122;2022-09-28T08:10:45;4.20;;;1.45;;
30185;SDS011;31152;49.190;8.122;2022-09-28T08:13:13;5.20;;;1.45;;
30185;SDS011;31152;49.190;8.122;2022-09-28T08:15:40;5.28;;;1.35;;
30185;SDS011;31152;49.190;8.122;2022-09-28T08:18:07;8.20;;;1.60;;
30185;SDS011;31152;49.190;8.122;2022-09-28T08:20:34;6.15;;;1.58;;
30185;SDS011;31152;49.190;8.122;2022-09-28T08:23:22;7.03;;;1.65;;
30185;SDS011;31152;49.190;8.122;2022-09-28T08:25:49;8.23;;;1.40;;
30185;SDS011;31152;49.190;8.122;2022-09-28T08:28:20;7.10;;;1.60;;
30185;SDS011;31152;49.190;8.122;2022-09-28T08:30:50;6.30;;;1.60;;
30185;SDS011;31152;49.190;8.122;2022-09-28T08:33:18;6.60;;;1.90;;
30185;SDS011;31152;49.190;8.122;2022-09-28T08:35:58;10.57;;;1.90;;
30185;SDS011;31152;49.190;8.122;2022-09-28T08:38:30;6.68;;;1.70;;
30185;SDS011;31152;49.190;8.122;2022-09-28T08:46:29;6.72;;;1.70;;
30185;SDS011;31152;49.190;8.122;2022-09-28T08:49:02;6.05;;;1.67;;
30185;SDS011;31152;49.190;8.122;2022-09-28T08:54:54;6.97;;;1.63;;
30185;SDS011;31152;49.190;8.122;2022-09-28T08:57:26;4.72;;;1.63;;
30185;SDS011;31152;49.190;8.122;2022-09-28T08:59:58;9.52;;;1.50;;
30185;SDS011;31152;49.190;8.122;2022-09-28T09:02:37;9.98;;;2.00;;
30185;SDS011;31152;49.190;8.122;2022-09-28T09:05:06;5.60;;;1.63;;
30185;SDS011;31152;49.190;8.122;2022-09-28T09:13:20;5.03;;;1.80;;
30185;SDS011;31152;49.190;8.122;2022-09-28T09:19:06;7.95;;;1.92;;
30185;SDS011;31152;49.190;8.122;2022-09-28T09:21:53;4.32;;;1.48;;
30185;SDS011;31152;49.190;8.122;2022-09-28T09:24:27;7.82;;;1.55;;
30185;SDS011;31152;49.190;8.122;2022-09-28T09:48:58;5.95;;;1.50;;
30185;SDS011;31152;49.190;8.122;2022-09-28T09:54:34;6.90;;;1.42;;
30185;SDS011;31152;49.190;8.122;2022-09-28T09:57:12;8.43;;;1.63;;
30185;SDS011;31152;49.190;8.122;2022-09-28T09:59:44;6.60;;;1.83;;
30185;SDS011;31152;49.190;8.122;2022-09-28T10:02:25;3.90;;;1.33;;
30185;SDS011;31152;49.190;8.122;2022-09-28T10:04:56;2.70;;;1.17;;
30185;SDS011;31152;49.190;8.122;2022-09-28T10:07:32;4.13;;;1.10;;
30185;SDS011;31152;49.190;8.122;2022-09-28T10:10:17;5.47;;;0.95;;
30185;SDS011;31152;49.190;8.122;2022-09-28T10:12:48;6.07;;;1.45;;
30185;SDS011;31152;49.190;8.122;2022-09-28T10:15:25;5.15;;;1.13;;
30185;SDS011;31152;49.190;8.122;2022-09-28T10:17:56;6.15;;;1.55;;
30185;SDS011;31152;49.190;8.122;2022-09-28T10:20:27;4.18;;;1.13;;
30185;SDS011;31152;49.190;8.122;2022-09-28T10:23:04;9.65;;;1.50;;
30185;SDS011;31152;49.190;8.122;2022-09-28T10:25:35;4.57;;;1.30;;
30185;SDS011;31152;49.190;8.122;2022-09-28T10:28:04;5.82;;;1.60;;
30185;SDS011;31152;49.190;8.122;2022-09-28T10:30:37;6.18;;;1.35;;
30185;SDS011;31152;49.190;8.122;2022-09-28T10:33:09;5.85;;;1.60;;
30185;SDS011;31152;49.190;8.122;2022-09-28T10:35:59;4.28;;;1.30;;
30185;SDS011;31152;49.190;8.122;2022-09-28T10:38:27;4.70;;;1.33;;
30185;SDS011;31152;49.190;8.122;2022-09-28T10:40:57;4.53;;;1.02;;
30185;SDS011;31152;49.190;8.122;2022-09-28T10:43:30;4.55;;;1.67;;
30185;SDS011;31152;49.190;8.122;2022-09-28T10:46:01;3.65;;;1.10;;
30185;SDS011;31152;49.190;8.122;2022-09-28T10:51:44;4.97;;;1.10;;
30185;SDS011;31152;49.190;8.122;2022-09-28T10:54:16;1.95;;;0.90;;
30185;SDS011;31152;49.190;8.122;2022-09-28T10:56:53;5.55;;;1.30;;
30185;SDS011;31152;49.190;8.122;2022-09-28T11:01:57;4.47;;;1.05;;
30185;SDS011;31152;49.190;8.122;2022-09-28T11:04:27;5.95;;;1.80;;
30185;SDS011;31152;49.190;8.122;2022-09-28T11:07:02;2.92;;;1.40;;
30185;SDS011;31152;49.190;8.122;2022-09-28T11:09:29;4.50;;;1.10;;
30185;SDS011;31152;49.190;8.122;2022-09-28T11:11:58;7.32;;;1.65;;
30185;SDS011;31152;49.190;8.122;2022-09-28T11:14:34;5.65;;;1.40;;
30185;SDS011;31152;49.190;8.122;2022-09-28T11:20:19;3.33;;;1.20;;
30185;SDS011;31152;49.190;8.122;2022-09-28T11:22:56;5.70;;;1.38;;
30185;SDS011;31152;49.190;8.122;2022-09-28T11:25:26;5.20;;;1.42;;
30185;SDS011;31152;49.190;8.122;2022-09-28T11:30:32;6.05;;;1.30;;
30185;SDS011;31152;49.190;8.122;2022-09-28T11:33:35;3.28;;;1.00;;
30185;SDS011;31152;49.190;8.122;2022-09-28T11:50:03;4.72;;;1.25;;
30185;SDS011;31152;49.190;8.122;2022-09-28T11:55:17;4.80;;;1.05;;
30185;SDS011;31152;49.190;8.122;2022-09-28T11:58:56;4.45;;;1.17;;
30185;SDS011;31152;49.190;8.122;2022-09-28T12:03:38;3.92;;;1.17;;
30185;SDS011;31152;49.190;8.122;2022-09-28T12:06:10;6.72;;;1.30;;
30185;SDS011;31152;49.190;8.122;2022-09-28T12:08:54;4.85;;;0.90;;
30185;SDS011;31152;49.190;8.122;2022-09-28T12:14:04;3.40;;;1.35;;
30185;SDS011;31152;49.190;8.122;2022-09-28T12:16:42;3.67;;;1.33;;
30185;SDS011;31152;49.190;8.122;2022-09-28T12:19:32;2.25;;;1.00;;
30185;SDS011;31152;49.190;8.122;2022-09-28T12:22:11;3.75;;;0.85;;
30185;SDS011;31152;49.190;8.122;2022-09-28T12:24:46;4.28;;;1.20;;
30185;SDS011;31152;49.190;8.122;2022-09-28T12:30:17;5.38;;;1.20;;
30185;SDS011;31152;49.190;8.122;2022-09-28T12:47:19;3.28;;;1.00;;
30185;SDS011;31152;49.190;8.122;2022-09-28T13:07:18;4.55;;;1.00;;
30185;SDS011;31152;49.190;8.122;2022-09-28T13:12:54;5.70;;;0.93;;
30185;SDS011;31152;49.190;8.122;2022-09-28T13:23:46;2.75;;;1.10;;
30185;SDS011;31152;49.190;8.122;2022-09-28T13:29:10;6.30;;;1.25;;
30185;SDS011;31152;49.190;8.122;2022-09-28T13:31:46;4.60;;;1.00;;
30185;SDS011;31152;49.190;8.122;2022-09-28T13:34:17;4.00;;;1.10;;
30185;SDS011;31152;49.190;8.122;2022-09-28T13:39:46;6.35;;;1.23;;
30185;SDS011;31152;49.190;8.122;2022-09-28T13:47:56;4.45;;;1.40;;
30185;SDS011;31152;49.190;8.122;2022-09-28T13:56:13;3.78;;;1.08;;
30185;SDS011;31152;49.190;8.122;2022-09-28T13:58:58;4.10;;;1.13;;
30185;SDS011;31152;49.190;8.122;2022-09-28T14:01:40;7.03;;;1.63;;
30185;SDS011;31152;49.190;8.122;2022-09-28T14:04:16;5.55;;;1.00;;
30185;SDS011;31152;49.190;8.122;2022-09-28T14:07:53;6.00;;;1.30;;
30185;SDS011;31152;49.190;8.122;2022-09-28T14:10:06;3.20;;;0.95;;
30185;SDS011;31152;49.190;8.122;2022-09-28T14:15:04;3.03;;;0.85;;
30185;SDS011;31152;49.190;8.122;2022-09-28T14:17:52;2.78;;;1.05;;
30185;SDS011;31152;49.190;8.122;2022-09-28T14:25:27;3.08;;;1.15;;
30185;SDS011;31152;49.190;8.122;2022-09-28T14:36:06;3.92;;;0.80;;
30185;SDS011;31152;49.190;8.122;2022-09-28T14:39:17;4.00;;;1.10;;
30185;SDS011;31152;49.190;8.122;2022-09-28T14:42:11;5.93;;;1.00;;
30185;SDS011;31152;49.190;8.122;2022-09-28T14:47:39;3.53;;;0.93;;
30185;SDS011;31152;49.190;8.122;2022-09-28T14:52:53;3.40;;;1.40;;
30185;SDS011;31152;49.190;8.122;2022-09-28T14:55:25;6.47;;;1.10;;
30185;SDS011;31152;49.190;8.122;2022-09-28T15:00:25;3.83;;;1.20;;
30185;SDS011;31152;49.190;8.122;2022-09-28T15:02:58;4.70;;;1.13;;
30185;SDS011;31152;49.190;8.122;2022-09-28T15:05:31;3.42;;;1.10;;
30185;SDS011;31152;49.190;8.122;2022-09-28T15:08:07;3.33;;;0.95;;
30185;SDS011;31152;49.190;8.122;2022-09-28T15:10:38;4.90;;;1.45;;
30185;SDS011;31152;49.190;8.122;2022-09-28T15:13:23;4.45;;;1.02;;
30185;SDS011;31152;49.190;8.122;2022-09-28T15:16:02;5.43;;;1.23;;
30185;SDS011;31152;49.190;8.122;2022-09-28T15:21:40;3.40;;;1.13;;
30185;SDS011;31152;49.190;8.122;2022-09-28T15:24:28;5.30;;;1.50;;
30185;SDS011;31152;49.190;8.122;2022-09-28T15:26:57;5.15;;;1.30;;
30185;SDS011;31152;49.190;8.122;2022-09-28T15:29:25;3.97;;;1.30;;
30185;SDS011;31152;49.190;8.122;2022-09-28T15:31:58;4.55;;;1.40;;
30185;SDS011;31152;49.190;8.122;2022-09-28T15:34:30;5.95;;;1.63;;
30185;SDS011;31152;49.190;8.122;2022-09-28T15:37:20;2.90;;;1.10;;
30185;SDS011;31152;49.190;8.122;2022-09-28T15:39:58;3.72;;;1.27;;
30185;SDS011;31152;49.190;8.122;2022-09-28T15:42:25;7.57;;;1.58;;
30185;SDS011;31152;49.190;8.122;2022-09-28T15:45:02;3.83;;;1.00;;
30185;SDS011;31152;49.190;8.122;2022-09-28T15:47:32;2.45;;;1.02;;
30185;SDS011;31152;49.190;8.122;2022-09-28T15:50:06;2.03;;;0.80;;
30185;SDS011;31152;49.190;8.122;2022-09-28T15:52:51;3.97;;;1.20;;
30185;SDS011;31152;49.190;8.122;2022-09-28T15:55:32;5.70;;;1.95;;
30185;SDS011;31152;49.190;8.122;2022-09-28T16:00:45;3.42;;;1.40;;
30185;SDS011;31152;49.190;8.122;2022-09-28T16:05:49;4.75;;;1.30;;
30185;SDS011;31152;49.190;8.122;2022-09-28T16:10:59;5.78;;;1.20;;
30185;SDS011;31152;49.190;8.122;2022-09-28T16:14:15;2.60;;;1.40;;
30185;SDS011;31152;49.190;8.122;2022-09-28T16:16:45;6.60;;;1.52;;
30185;SDS011;31152;49.190;8.122;2022-09-28T16:19:19;2.75;;;1.02;;
30185;SDS011;31152;49.190;8.122;2022-09-28T16:21:52;5.45;;;1.17;;
30185;SDS011;31152;49.190;8.122;2022-09-28T16:26:57;4.78;;;1.40;;
30185;SDS011;31152;49.190;8.122;2022-09-28T16:37:45;4.97;;;1.30;;
30185;SDS011;31152;49.190;8.122;2022-09-28T16:40:13;8.27;;;1.40;;
30185;SDS011;31152;49.190;8.122;2022-09-28T16:42:43;2.83;;;1.08;;
30185;SDS011;31152;49.190;8.122;2022-09-28T16:45:18;3.50;;;1.27;;
30185;SDS011;31152;49.190;8.122;2022-09-28T16:47:48;3.63;;;1.27;;
30185;SDS011;31152;49.190;8.122;2022-09-28T16:50:20;9.52;;;1.67;;
30185;SDS011;31152;49.190;8.122;2022-09-28T16:52:55;7.72;;;0.98;;
30185;SDS011;31152;49.190;8.122;2022-09-28T16:55:49;2.83;;;0.98;;
30185;SDS011;31152;49.190;8.122;2022-09-28T16:58:18;4.65;;;1.40;;
30185;SDS011;31152;49.190;8.122;2022-09-28T17:00:47;1.80;;;0.80;;
30185;SDS011;31152;49.190;8.122;2022-09-28T17:03:16;6.32;;;1.55;;
30185;SDS011;31152;49.190;8.122;2022-09-28T17:05:43;4.60;;;1.10;;
30185;SDS011;31152;49.190;8.122;2022-09-28T17:08:13;5.22;;;1.40;;
30185;SDS011;31152;49.190;8.122;2022-09-28T17:10:47;4.13;;;1.17;;
30185;SDS011;31152;49.190;8.122;2022-09-28T17:13:38;3.53;;;1.20;;
30185;SDS011;31152;49.190;8.122;2022-09-28T17:16:12;4.13;;;1.00;;
30185;SDS011;31152;49.190;8.122;2022-09-28T17:19:02;3.88;;;1.48;;
30185;SDS011;31152;49.190;8.122;2022-09-28T17:21:30;3.20;;;1.33;;
30185;SDS011;31152;49.190;8.122;2022-09-28T17:23:57;5.88;;;1.90;;
30185;SDS011;31152;49.190;8.122;2022-09-28T17:26:27;5.05;;;1.63;;
30185;SDS011;31152;49.190;8.122;2022-09-28T17:28:58;5.47;;;1.35;;
30185;SDS011;31152;49.190;8.122;2022-09-28T17:31:27;5.10;;;1.60;;
30185;SDS011;31152;49.190;8.122;2022-09-28T17:33:56;3.92;;;1.50;;
30185;SDS011;31152;49.190;8.122;2022-09-28T17:36:26;2.83;;;1.20;;
30185;SDS011;31152;49.190;8.122;2022-09-28T17:38:54;4.35;;;1.63;;
30185;SDS011;31152;49.190;8.122;2022-09-28T17:41:22;4.38;;;1.60;;
30185;SDS011;31152;49.190;8.122;2022-09-28T17:43:51;5.28;;;1.88;;
30185;SDS011;31152;49.190;8.122;2022-09-28T17:46:24;9.65;;;2.55;;
30185;SDS011;31152;49.190;8.122;2022-09-28T17:48:56;5.55;;;2.00;;
30185;SDS011;31152;49.190;8.122;2022-09-28T17:51:30;7.00;;;2.05;;
30185;SDS011;31152;49.190;8.122;2022-09-28T17:54:03;6.30;;;2.30;;
30185;SDS011;31152;49.190;8.122;2022-09-28T17:56:32;7.70;;;2.22;;
30185;SDS011;31152;49.190;8.122;2022-09-28T17:59:03;6.68;;;2.25;;
30185;SDS011;31152;49.190;8.122;2022-09-28T18:01:36;9.35;;;2.67;;
30185;SDS011;31152;49.190;8.122;2022-09-28T18:04:04;10.57;;;3.72;;
30185;SDS011;31152;49.190;8.122;2022-09-28T18:06:35;10.13;;;3.70;;
30185;SDS011;31152;49.190;8.122;2022-09-28T18:09:06;9.20;;;3.92;;
30185;SDS011;31152;49.190;8.122;2022-09-28T18:11:34;15.02;;;4.57;;
30185;SDS011;31152;49.190;8.122;2022-09-28T18:14:07;16.07;;;6.00;;
30185;SDS011;31152;49.190;8.122;2022-09-28T18:16:36;12.27;;;4.75;;
30185;SDS011;31152;49.190;8.122;2022-09-28T18:19:03;14.98;;;4.93;;
30185;SDS011;31152;49.190;8.122;2022-09-28T18:21:30;13.38;;;5.53;;
30185;SDS011;31152;49.190;8.122;2022-09-28T18:23:57;8.15;;;3.30;;
30185;SDS011;31152;49.190;8.122;2022-09-28T18:26:24;11.40;;;2.92;;
30185;SDS011;31152;49.190;8.122;2022-09-28T18:28:54;7.78;;;2.78;;
30185;SDS011;31152;49.190;8.122;2022-09-28T18:31:21;9.77;;;3.95;;
30185;SDS011;31152;49.190;8.122;2022-09-28T18:33:55;11.15;;;3.50;;
30185;SDS011;31152;49.190;8.122;2022-09-28T18:36:27;11.13;;;3.67;;
30185;SDS011;31152;49.190;8.122;2022-09-28T18:39:00;9.55;;;4.05;;
30185;SDS011;31152;49.190;8.122;2022-09-28T18:41:28;12.77;;;3.15;;
30185;SDS011;31152;49.190;8.122;2022-09-28T18:43:54;7.75;;;3.40;;
30185;SDS011;31152;49.190;8.122;2022-09-28T18:46:27;8.60;;;3.22;;
30185;SDS011;31152;49.190;8.122;2022-09-28T18:48:55;11.30;;;3.42;;
30185;SDS011;31152;49.190;8.122;2022-09-28T18:51:24;8.13;;;3.03;;
30185;SDS011;31152;49.190;8.122;2022-09-28T18:53:53;8.93;;;3.60;;
30185;SDS011;31152;49.190;8.122;2022-09-28T18:56:20;7.75;;;3.33;;
30185;SDS011;31152;49.190;8.122;2022-09-28T18:58:47;5.90;;;2.55;;
30185;SDS011;31152;49.190;8.122;2022-09-28T19:01:17;6.10;;;2.88;;
30185;SDS011;31152;49.190;8.122;2022-09-28T19:03:57;7.50;;;2.20;;